createdAt,value
2018-10-07T00:00:32.357Z,68.83
2018-10-07T00:01:36.497Z,69.09
2018-10-07T00:02:40.584Z,68.86
2018-10-07T00:03:44.642Z,69.35
2018-10-07T00:04:48.736Z,69.46
2018-10-07T00:05:52.906Z,68.82
2018-10-07T00:06:57.036Z,69.09
2018-10-07T00:08:01.189Z,69.06
2018-10-07T00:09:06.731Z,68.84
2018-10-07T00:10:12.380Z,69.64
2018-10-07T00:11:16.565Z,69.25
2018-10-07T00:12:20.644Z,68.61
2018-10-07T00:13:24.671Z,69.01
2018-10-07T00:14:28.856Z,68.77
2018-10-07T00:15:33.473Z,69.14
2018-10-07T00:16:37.857Z,69.25
2018-10-07T00:17:42.054Z,69.09
2018-10-07T00:18:46.197Z,68.68
2018-10-07T00:19:50.252Z,68.76
2018-10-07T00:20:54.305Z,68.72
2018-10-07T00:21:58.538Z,69.09
2018-10-07T00:23:02.821Z,68.57
2018-10-07T00:24:06.862Z,68.98
2018-10-07T00:25:11.596Z,69.01
2018-10-07T00:26:15.763Z,68.98
2018-10-07T00:27:19.786Z,68.56
2018-10-07T00:28:23.992Z,68.92
2018-10-07T00:29:28.092Z,68.58
2018-10-07T00:30:32.472Z,68.49
2018-10-07T00:31:41.915Z,68.88
2018-10-07T00:32:45.998Z,68.41
2018-10-07T00:33:50.067Z,68.39
2018-10-07T00:34:54.175Z,68.66
2018-10-07T00:35:58.284Z,68.97
2018-10-07T00:37:02.380Z,69.04
2018-10-07T00:38:06.478Z,68.77
2018-10-07T00:39:11.491Z,69.01
2018-10-07T00:40:15.584Z,69.17
2018-10-07T00:41:19.676Z,68.82
2018-10-07T00:42:23.809Z,69.45
2018-10-07T00:43:27.880Z,69.54
2018-10-07T00:44:32.204Z,69.07
2018-10-07T00:45:36.251Z,69.74
2018-10-07T00:46:40.330Z,69.77
2018-10-07T00:47:44.375Z,69.47
2018-10-07T00:48:48.532Z,69.40
2018-10-07T00:49:52.914Z,69.83
2018-10-07T00:50:57.052Z,69.93
2018-10-07T00:52:01.191Z,69.46
2018-10-07T00:53:05.345Z,69.99
2018-10-07T00:54:09.417Z,69.71
2018-10-07T00:55:13.861Z,70.32
2018-10-07T00:56:18.052Z,70.00
2018-10-07T00:57:22.596Z,69.67
2018-10-07T00:58:26.727Z,70.41
2018-10-07T00:59:30.771Z,70.32
2018-10-07T01:00:34.876Z,70.53
2018-10-07T01:01:39.286Z,69.82
2018-10-07T01:02:43.435Z,69.79
2018-10-07T01:03:47.622Z,70.59
2018-10-07T01:04:52.063Z,69.96
2018-10-07T01:05:56.186Z,70.21
2018-10-07T01:07:00.362Z,70.52
2018-10-07T01:08:04.413Z,70.25
2018-10-07T01:09:10.040Z,70.53
2018-10-07T01:10:14.093Z,70.65
2018-10-07T01:11:18.147Z,70.54
2018-10-07T01:12:22.347Z,70.09
2018-10-07T01:13:26.403Z,70.47
2018-10-07T01:14:30.460Z,70.55
2018-10-07T01:15:34.805Z,69.98
2018-10-07T01:16:38.944Z,70.68
2018-10-07T01:17:43.159Z,70.14
2018-10-07T01:18:47.198Z,70.69
2018-10-07T01:19:51.341Z,70.52
2018-10-07T01:20:55.465Z,70.63
2018-10-07T01:21:59.584Z,70.54
2018-10-07T01:23:03.769Z,69.76
2018-10-07T01:24:08.618Z,70.34
2018-10-07T01:25:12.696Z,69.72
2018-10-07T01:26:16.944Z,70.47
2018-10-07T01:27:21.855Z,69.78
2018-10-07T01:28:26.017Z,69.85
2018-10-07T01:29:30.299Z,70.23
2018-10-07T01:30:34.349Z,69.87
2018-10-07T01:31:38.472Z,70.48
2018-10-07T01:32:42.601Z,70.17
2018-10-07T01:33:46.806Z,69.81
2018-10-07T01:34:51.001Z,70.54
2018-10-07T01:35:55.104Z,70.31
2018-10-07T01:36:59.338Z,69.91
2018-10-07T01:38:03.466Z,69.71
2018-10-07T01:39:09.432Z,70.50
2018-10-07T01:40:13.605Z,70.50
2018-10-07T01:41:17.968Z,70.66
2018-10-07T01:42:21.996Z,70.86
2018-10-07T01:43:26.242Z,70.73
2018-10-07T01:44:30.400Z,70.49
2018-10-07T01:45:34.524Z,70.73
2018-10-07T01:46:38.610Z,71.14
2018-10-07T01:47:43.060Z,70.75
2018-10-07T01:48:47.230Z,71.03
2018-10-07T01:49:51.331Z,71.70
2018-10-07T01:50:55.527Z,71.82
2018-10-07T01:51:59.648Z,71.41
2018-10-07T01:53:03.824Z,72.12
2018-10-07T01:54:07.929Z,71.76
2018-10-07T01:55:11.987Z,72.07
2018-10-07T01:56:16.227Z,72.31
2018-10-07T01:57:20.424Z,72.38
2018-10-07T01:58:24.515Z,72.58
2018-10-07T01:59:28.734Z,72.64
2018-10-07T02:00:32.855Z,72.74
2018-10-07T02:01:36.987Z,72.68
2018-10-07T02:02:41.047Z,72.87
2018-10-07T02:03:45.167Z,73.87
2018-10-07T02:04:49.415Z,73.56
2018-10-07T02:05:53.744Z,73.33
2018-10-07T02:06:57.759Z,73.72
2018-10-07T02:08:01.870Z,74.35
2018-10-07T02:09:08.044Z,73.60
2018-10-07T02:10:12.279Z,74.31
2018-10-07T02:11:16.376Z,73.98
2018-10-07T02:12:20.605Z,73.98
2018-10-07T02:13:24.861Z,74.21
2018-10-07T02:14:28.949Z,74.77
2018-10-07T02:15:33.124Z,74.25
2018-10-07T02:16:37.315Z,74.45
2018-10-07T02:17:41.469Z,74.90
2018-10-07T02:18:45.622Z,74.32
2018-10-07T02:19:49.949Z,74.88
2018-10-07T02:20:54.209Z,75.03
2018-10-07T02:21:58.338Z,74.43
2018-10-07T02:23:02.419Z,74.69
2018-10-07T02:24:06.548Z,74.35
2018-10-07T02:25:10.627Z,74.69
2018-10-07T02:26:14.948Z,74.76
2018-10-07T02:27:19.024Z,75.33
2018-10-07T02:28:23.154Z,75.26
2018-10-07T02:29:27.300Z,75.36
2018-10-07T02:30:31.501Z,74.66
2018-10-07T02:31:36.443Z,74.78
2018-10-07T02:32:40.500Z,75.28
2018-10-07T02:33:44.581Z,75.28
2018-10-07T02:34:48.643Z,75.50
2018-10-07T02:35:52.796Z,74.91
2018-10-07T02:36:56.912Z,75.35
2018-10-07T02:38:01.226Z,75.48
2018-10-07T02:39:07.267Z,74.98
2018-10-07T02:40:11.424Z,75.03
2018-10-07T02:41:15.566Z,75.22
2018-10-07T02:42:19.667Z,75.18
2018-10-07T02:43:23.968Z,75.77
2018-10-07T02:44:28.038Z,75.42
2018-10-07T02:45:32.231Z,75.85
2018-10-07T02:46:36.316Z,75.57
2018-10-07T02:47:40.608Z,75.67
2018-10-07T02:48:44.700Z,75.19
2018-10-07T02:49:48.760Z,75.82
2018-10-07T02:50:52.864Z,75.36
2018-10-07T02:51:57.174Z,75.22
2018-10-07T02:53:01.476Z,75.27
2018-10-07T02:54:06.008Z,75.75
2018-10-07T02:55:10.180Z,75.73
2018-10-07T02:56:14.371Z,75.87
2018-10-07T02:57:18.646Z,75.12
2018-10-07T02:58:23.418Z,75.33
2018-10-07T02:59:27.710Z,75.16
2018-10-07T03:00:31.859Z,75.86
2018-10-07T03:01:35.992Z,75.78
2018-10-07T03:02:40.120Z,75.85
2018-10-07T03:03:44.189Z,75.81
2018-10-07T03:04:48.451Z,75.37
2018-10-07T03:05:52.540Z,75.24
2018-10-07T03:06:56.888Z,75.25
2018-10-07T03:08:01.339Z,75.33
2018-10-07T03:09:07.053Z,75.21
2018-10-07T03:10:11.512Z,75.86
2018-10-07T03:11:15.893Z,75.56
2018-10-07T03:12:20.009Z,75.91
2018-10-07T03:13:24.266Z,75.40
2018-10-07T03:14:28.385Z,75.89
2018-10-07T03:15:32.745Z,76.27
2018-10-07T03:16:36.900Z,76.03
2018-10-07T03:17:40.916Z,75.48
2018-10-07T03:18:45.072Z,76.11
2018-10-07T03:19:49.115Z,75.79
2018-10-07T03:20:53.193Z,75.46
2018-10-07T03:21:57.224Z,75.57
2018-10-07T03:23:01.244Z,75.57
2018-10-07T03:24:05.371Z,76.31
2018-10-07T03:25:09.966Z,75.48
2018-10-07T03:26:14.085Z,75.93
2018-10-07T03:27:18.364Z,75.54
2018-10-07T03:28:22.434Z,76.20
2018-10-07T03:29:26.516Z,76.08
2018-10-07T03:30:30.672Z,75.41
2018-10-07T03:31:34.705Z,76.00
2018-10-07T03:32:38.871Z,75.87
2018-10-07T03:33:42.959Z,75.91
2018-10-07T03:34:47.023Z,75.32
2018-10-07T03:35:51.168Z,75.41
2018-10-07T03:36:55.220Z,74.99
2018-10-07T03:37:59.412Z,75.07
2018-10-07T03:39:05.308Z,75.44
2018-10-07T03:40:09.350Z,74.81
2018-10-07T03:41:13.487Z,74.86
2018-10-07T03:42:17.545Z,74.75
2018-10-07T03:43:21.649Z,75.34
2018-10-07T03:44:25.715Z,74.63
2018-10-07T03:45:29.769Z,74.74
2018-10-07T03:46:33.908Z,74.43
2018-10-07T03:47:37.976Z,74.50
2018-10-07T03:48:42.161Z,74.98
2018-10-07T03:49:46.358Z,75.08
2018-10-07T03:50:50.491Z,74.94
2018-10-07T03:51:54.874Z,74.73
2018-10-07T03:52:58.959Z,74.25
2018-10-07T03:54:03.060Z,75.07
2018-10-07T03:55:07.156Z,74.99
2018-10-07T03:56:11.225Z,74.73
2018-10-07T03:57:15.382Z,75.23
2018-10-07T03:58:19.622Z,74.87
2018-10-07T03:59:24.119Z,74.71
2018-10-07T04:00:28.197Z,74.72
2018-10-07T04:01:32.418Z,74.61
2018-10-07T04:02:36.540Z,74.26
2018-10-07T04:03:40.598Z,74.80
2018-10-07T04:04:44.726Z,74.45
2018-10-07T04:05:48.815Z,74.48
2018-10-07T04:06:52.897Z,74.85
2018-10-07T04:07:57.124Z,74.26
2018-10-07T04:09:01.203Z,74.88
2018-10-07T04:10:05.376Z,75.06
2018-10-07T04:11:09.461Z,75.05
2018-10-07T04:12:13.613Z,74.45
2018-10-07T04:13:18.002Z,74.46
2018-10-07T04:14:22.160Z,74.86
2018-10-07T04:15:26.294Z,74.31
2018-10-07T04:16:30.506Z,74.80
2018-10-07T04:17:34.983Z,74.38
2018-10-07T04:18:39.123Z,74.64
2018-10-07T04:19:43.309Z,74.43
2018-10-07T04:20:47.411Z,74.37
2018-10-07T04:21:57.629Z,74.26
2018-10-07T04:23:01.726Z,74.42
2018-10-07T04:24:05.923Z,74.50
2018-10-07T04:25:10.016Z,74.80
2018-10-07T04:26:14.072Z,74.82
2018-10-07T04:27:18.175Z,74.19
2018-10-07T04:28:22.279Z,74.24
2018-10-07T04:29:26.582Z,74.14
2018-10-07T04:30:30.659Z,74.64
2018-10-07T04:31:34.837Z,74.63
2018-10-07T04:32:38.932Z,74.16
2018-10-07T04:33:42.997Z,74.63
2018-10-07T04:34:47.312Z,74.51
2018-10-07T04:35:51.371Z,74.33
2018-10-07T04:36:55.738Z,74.33
2018-10-07T04:38:00.163Z,74.48
2018-10-07T04:39:05.290Z,74.12
2018-10-07T04:40:09.374Z,74.52
2018-10-07T04:41:13.434Z,74.63
2018-10-07T04:42:17.444Z,74.33
2018-10-07T04:43:21.536Z,74.21
2018-10-07T04:44:25.737Z,74.16
2018-10-07T04:45:29.819Z,73.88
2018-10-07T04:46:34.132Z,74.47
2018-10-07T04:47:38.586Z,73.70
2018-10-07T04:48:42.698Z,73.63
2018-10-07T04:49:46.801Z,73.56
2018-10-07T04:50:50.940Z,74.05
2018-10-07T04:51:54.985Z,73.77
2018-10-07T04:52:59.125Z,73.57
2018-10-07T04:54:03.587Z,73.68
2018-10-07T04:55:07.724Z,74.14
2018-10-07T04:56:11.768Z,74.09
2018-10-07T04:57:15.826Z,73.58
2018-10-07T04:58:19.952Z,74.27
2018-10-07T04:59:24.044Z,73.63
2018-10-07T05:00:28.158Z,74.27
2018-10-07T05:01:32.260Z,74.29
2018-10-07T05:02:36.387Z,73.68
2018-10-07T05:03:40.618Z,74.25
2018-10-07T05:04:44.815Z,74.32
2018-10-07T05:05:49.416Z,74.09
2018-10-07T05:06:53.661Z,73.68
2018-10-07T05:07:57.804Z,73.98
2018-10-07T05:09:03.061Z,73.67
2018-10-07T05:10:18.446Z,73.49
2018-10-07T05:11:22.597Z,74.09
2018-10-07T05:12:26.796Z,73.74
2018-10-07T05:13:35.814Z,73.41
2018-10-07T05:14:39.976Z,73.51
2018-10-07T05:15:44.649Z,74.16
2018-10-07T05:16:49.767Z,74.11
2018-10-07T05:17:53.936Z,73.80
2018-10-07T05:18:58.376Z,73.99
2018-10-07T05:20:02.496Z,73.45
2018-10-07T05:21:06.568Z,74.05
2018-10-07T05:22:11.230Z,73.89
2018-10-07T05:23:15.533Z,73.42
2018-10-07T05:24:19.799Z,73.82
2018-10-07T05:25:23.866Z,73.20
2018-10-07T05:26:28.574Z,73.53
2018-10-07T05:27:32.746Z,73.90
2018-10-07T05:28:37.076Z,73.93
2018-10-07T05:29:41.182Z,73.39
2018-10-07T05:30:45.222Z,73.17
2018-10-07T05:31:49.452Z,73.67
2018-10-07T05:32:53.549Z,73.91
2018-10-07T05:33:57.618Z,73.74
2018-10-07T05:35:01.738Z,73.66
2018-10-07T05:36:05.961Z,73.15
2018-10-07T05:37:10.076Z,73.67
2018-10-07T05:38:14.192Z,73.30
2018-10-07T05:39:18.474Z,73.36
2018-10-07T05:40:22.556Z,72.99
2018-10-07T05:41:28.042Z,73.33
2018-10-07T05:42:32.190Z,73.36
2018-10-07T05:43:36.368Z,73.48
2018-10-07T05:44:40.573Z,72.96
2018-10-07T05:45:44.568Z,72.63
2018-10-07T05:46:48.647Z,72.66
2018-10-07T05:47:53.371Z,73.21
2018-10-07T05:48:57.534Z,72.61
2018-10-07T05:50:01.676Z,73.11
2018-10-07T05:51:05.779Z,72.23
2018-10-07T05:52:09.913Z,72.92
2018-10-07T05:53:14.052Z,72.52
2018-10-07T05:54:18.178Z,73.01
2018-10-07T05:55:22.544Z,72.50
2018-10-07T05:56:26.637Z,73.06
2018-10-07T05:57:30.728Z,72.33
2018-10-07T05:58:35.176Z,72.33
2018-10-07T05:59:43.427Z,72.15
2018-10-07T06:00:47.508Z,72.10
2018-10-07T06:01:51.873Z,72.00
2018-10-07T06:03:02.240Z,72.38
2018-10-07T06:04:22.987Z,72.39
2018-10-07T06:05:27.194Z,72.45
2018-10-07T06:06:31.364Z,71.74
2018-10-07T06:07:35.486Z,71.56
2018-10-07T06:08:41.261Z,71.40
2018-10-07T06:09:45.629Z,71.37
2018-10-07T06:10:49.732Z,71.61
2018-10-07T06:11:54.580Z,71.07
2018-10-07T06:12:58.661Z,71.38
2018-10-07T06:14:02.816Z,70.82
2018-10-07T06:15:22.791Z,70.80
2018-10-07T06:16:26.851Z,71.22
2018-10-07T06:17:30.996Z,70.56
2018-10-07T06:18:35.111Z,70.46
2018-10-07T06:19:39.195Z,70.26
2018-10-07T06:20:43.279Z,69.53
2018-10-07T06:21:47.668Z,69.36
2018-10-07T06:22:51.774Z,70.09
2018-10-07T06:23:55.919Z,69.36
2018-10-07T06:25:00.199Z,68.97
2018-10-07T06:26:04.289Z,69.51
2018-10-07T06:27:08.329Z,69.26
2018-10-07T06:28:12.472Z,68.40
2018-10-07T06:29:16.700Z,68.08
2018-10-07T06:30:21.032Z,68.51
2018-10-07T06:31:25.120Z,68.20
2018-10-07T06:32:29.260Z,67.62
2018-10-07T06:33:33.424Z,67.35
2018-10-07T06:34:37.580Z,67.76
2018-10-07T06:35:41.748Z,66.64
2018-10-07T06:36:45.917Z,66.67
2018-10-07T06:37:49.999Z,66.61
2018-10-07T06:38:54.096Z,65.53
2018-10-07T06:39:58.328Z,65.40
2018-10-07T06:41:02.443Z,65.71
2018-10-07T06:42:06.852Z,65.47
2018-10-07T06:43:10.964Z,65.39
2018-10-07T06:44:15.267Z,65.21
2018-10-07T06:45:19.804Z,64.25
2018-10-07T06:46:24.048Z,64.87
2018-10-07T06:47:28.155Z,64.60
2018-10-07T06:48:32.255Z,64.05
2018-10-07T06:49:36.364Z,63.94
2018-10-07T06:50:40.563Z,64.62
2018-10-07T06:51:44.678Z,64.23
2018-10-07T06:52:48.723Z,64.77
2018-10-07T06:53:52.980Z,63.97
2018-10-07T06:55:01.598Z,63.84
2018-10-07T06:56:05.750Z,63.81
2018-10-07T06:57:09.947Z,64.22
2018-10-07T06:58:14.082Z,64.02
2018-10-07T06:59:18.577Z,64.38
2018-10-07T07:00:22.620Z,63.78
2018-10-07T07:01:26.772Z,64.21
2018-10-07T07:02:30.936Z,63.94
2018-10-07T07:03:34.964Z,64.21
2018-10-07T07:04:39.037Z,63.69
2018-10-07T07:05:43.232Z,64.31
2018-10-07T07:06:47.388Z,64.26
2018-10-07T07:07:51.372Z,63.61
2018-10-07T07:08:55.623Z,64.42
2018-10-07T07:09:59.679Z,63.68
2018-10-07T07:11:04.360Z,64.35
2018-10-07T07:12:08.653Z,64.21
2018-10-07T07:13:12.725Z,64.24
2018-10-07T07:14:18.963Z,64.40
2018-10-07T07:15:23.049Z,64.27
2018-10-07T07:16:27.270Z,63.81
2018-10-07T07:17:31.308Z,63.93
2018-10-07T07:18:35.393Z,63.55
2018-10-07T07:19:39.788Z,64.13
2018-10-07T07:20:43.800Z,63.45
2018-10-07T07:21:47.920Z,64.25
2018-10-07T07:22:52.327Z,63.58
2018-10-07T07:24:03.189Z,64.11
2018-10-07T07:25:07.308Z,64.26
2018-10-07T07:26:11.465Z,63.94
2018-10-07T07:27:15.706Z,63.96
2018-10-07T07:28:20.247Z,63.64
2018-10-07T07:29:24.494Z,63.70
2018-10-07T07:30:28.724Z,63.43
2018-10-07T07:31:33.014Z,63.59
2018-10-07T07:32:37.036Z,63.88
2018-10-07T07:33:41.360Z,63.43
2018-10-07T07:38:09.005Z,63.63
2018-10-07T07:39:12.989Z,63.58
2018-10-07T07:40:16.972Z,63.32
2018-10-07T07:41:20.947Z,62.85
2018-10-07T07:42:24.984Z,63.36
2018-10-07T07:43:29.004Z,63.35
2018-10-07T07:44:33.298Z,62.79
2018-10-07T07:45:47.380Z,62.59
2018-10-07T07:46:51.416Z,62.82
2018-10-07T07:47:55.426Z,63.05
2018-10-07T07:48:59.429Z,62.41
2018-10-07T07:50:03.421Z,63.03
2018-10-07T07:51:07.467Z,62.99
2018-10-07T07:52:17.312Z,62.29
2018-10-07T07:53:21.284Z,62.67
2018-10-07T07:54:25.309Z,62.91
2018-10-07T07:55:29.362Z,62.78
2018-10-07T07:56:33.367Z,62.74
2018-10-07T07:57:37.340Z,62.05
2018-10-07T07:58:41.372Z,62.59
2018-10-07T07:59:45.617Z,62.28
2018-10-07T08:00:49.592Z,62.56
2018-10-07T08:01:55.926Z,62.00
2018-10-07T08:02:59.951Z,62.49
2018-10-07T08:04:04.214Z,62.46
2018-10-07T08:05:08.275Z,62.16
2018-10-07T08:06:12.334Z,62.35
2018-10-07T08:07:16.361Z,62.14
2018-10-07T08:08:20.401Z,61.42
2018-10-07T08:09:24.454Z,62.23
2018-10-07T08:10:28.468Z,61.99
2018-10-07T08:11:32.539Z,61.94
2018-10-07T08:12:36.812Z,61.17
2018-10-07T08:13:40.869Z,61.87
2018-10-07T08:14:44.821Z,61.79
2018-10-07T08:15:48.876Z,61.45
2018-10-07T08:16:52.880Z,60.80
2018-10-07T08:17:56.959Z,60.78
2018-10-07T08:19:00.967Z,60.74
2018-10-07T08:20:04.935Z,61.27
2018-10-07T08:21:08.953Z,61.32
2018-10-07T08:22:13.048Z,60.76
2018-10-07T08:23:17.128Z,61.05
2018-10-07T08:24:21.080Z,61.26
2018-10-07T08:25:25.139Z,61.25
2018-10-07T08:26:29.137Z,61.27
2018-10-07T08:27:33.125Z,61.10
2018-10-07T08:28:37.111Z,60.28
2018-10-07T08:29:41.141Z,60.31
2018-10-07T08:30:45.227Z,60.80
2018-10-07T08:31:49.257Z,60.86
2018-10-07T08:32:53.350Z,60.30
2018-10-07T08:33:57.408Z,60.92
2018-10-07T08:35:01.529Z,60.84
2018-10-07T08:36:05.518Z,60.89
2018-10-07T08:37:10.001Z,60.15
2018-10-07T08:38:14.307Z,61.00
2018-10-07T08:39:18.413Z,60.78
2018-10-07T08:40:22.804Z,60.40
2018-10-07T08:41:26.857Z,60.50
2018-10-07T08:42:30.997Z,60.76
2018-10-07T08:46:51.096Z,60.92
2018-10-07T08:47:55.175Z,60.22
2018-10-07T08:49:01.566Z,60.58
2018-10-07T08:50:05.593Z,60.79
2018-10-07T08:51:09.660Z,60.06
2018-10-07T08:52:14.003Z,60.67
2018-10-07T08:53:18.096Z,60.06
2018-10-07T08:54:22.226Z,60.23
2018-10-07T08:55:26.395Z,59.63
2018-10-07T08:56:30.623Z,60.17
2018-10-07T08:57:34.625Z,59.36
2018-10-07T08:58:38.686Z,59.83
2018-10-07T08:59:42.785Z,59.61
2018-10-07T09:00:47.114Z,59.32
2018-10-07T09:01:51.399Z,59.86
2018-10-07T09:02:58.352Z,59.44
2018-10-07T09:04:02.409Z,59.65
2018-10-07T09:05:06.515Z,59.01
2018-10-07T09:06:10.586Z,59.66
2018-10-07T09:07:14.779Z,59.05
2018-10-07T09:08:18.823Z,58.98
2018-10-07T09:09:22.878Z,59.40
2018-10-07T09:10:26.915Z,59.78
2018-10-07T09:11:31.081Z,59.46
2018-10-07T09:12:35.268Z,59.79
2018-10-07T09:13:39.831Z,59.04
2018-10-07T09:14:44.202Z,59.55
2018-10-07T09:15:48.259Z,58.93
2018-10-07T09:16:52.355Z,59.55
2018-10-07T09:17:56.544Z,59.34
2018-10-07T09:19:00.744Z,58.90
2018-10-07T09:20:05.323Z,58.99
2018-10-07T09:21:09.522Z,59.49
2018-10-07T09:22:13.631Z,58.92
2018-10-07T09:23:17.681Z,59.57
2018-10-07T09:24:21.695Z,59.56
2018-10-07T09:25:25.818Z,58.84
2018-10-07T09:26:30.004Z,59.47
2018-10-07T09:27:34.272Z,58.82
2018-10-07T09:28:38.339Z,59.25
2018-10-07T09:29:42.465Z,59.26
2018-10-07T09:30:46.609Z,58.62
2018-10-07T09:31:50.702Z,59.25
2018-10-07T09:32:54.889Z,59.19
2018-10-07T09:33:59.051Z,59.20
2018-10-07T09:35:04.422Z,58.35
2018-10-07T09:36:08.516Z,59.17
2018-10-07T09:37:12.543Z,58.58
2018-10-07T09:38:16.709Z,58.72
2018-10-07T09:39:20.853Z,57.93
2018-10-07T09:40:24.864Z,58.24
2018-10-07T09:41:28.978Z,57.74
2018-10-07T09:42:33.060Z,58.39
2018-10-07T09:43:37.120Z,57.64
2018-10-07T09:44:41.211Z,58.01
2018-10-07T09:45:45.274Z,57.41
2018-10-07T09:46:49.396Z,57.06
2018-10-07T09:47:53.527Z,57.55
2018-10-07T09:48:58.092Z,57.26
2018-10-07T09:50:02.175Z,57.45
2018-10-07T09:51:06.377Z,56.62
2018-10-07T09:52:10.542Z,56.50
2018-10-07T09:53:14.624Z,56.53
2018-10-07T09:54:18.651Z,56.92
2018-10-07T09:55:22.754Z,56.88
2018-10-07T09:56:26.954Z,56.79
2018-10-07T09:57:31.140Z,56.80
2018-10-07T09:58:35.190Z,56.04
2018-10-07T09:59:39.237Z,56.09
2018-10-07T10:00:43.276Z,55.99
2018-10-07T10:01:47.511Z,56.55
2018-10-07T10:02:51.567Z,56.36
2018-10-07T10:03:55.763Z,56.19
2018-10-07T10:04:59.725Z,56.15
2018-10-07T10:06:03.874Z,56.36
2018-10-07T10:07:07.964Z,56.29
2018-10-07T10:08:12.169Z,56.33
2018-10-07T10:09:16.325Z,55.55
2018-10-07T10:10:20.407Z,55.99
2018-10-07T10:11:24.662Z,56.14
2018-10-07T10:12:28.550Z,55.79
2018-10-07T10:13:32.703Z,56.23
2018-10-07T10:14:36.800Z,55.76
2018-10-07T10:15:40.928Z,55.68
2018-10-07T10:16:52.682Z,55.62
2018-10-07T10:18:03.539Z,56.08
2018-10-07T10:19:11.166Z,55.47
2018-10-07T10:20:17.727Z,55.93
2018-10-07T10:21:49.217Z,55.33
2018-10-07T10:23:10.710Z,55.69
2018-10-07T10:24:35.045Z,55.47
2018-10-07T10:25:57.297Z,55.21
2018-10-07T10:28:07.456Z,55.20
2018-10-07T10:29:19.587Z,54.23
2018-10-07T10:30:35.877Z,55.24
2018-10-07T10:31:53.355Z,54.86
2018-10-07T10:33:06.378Z,54.53
2018-10-07T10:34:17.845Z,54.82
2018-10-07T10:35:36.355Z,54.56
2018-10-07T10:36:44.088Z,54.32
2018-10-07T10:39:15.275Z,54.08
2018-10-07T10:40:26.066Z,54.07
2018-10-07T10:41:42.333Z,53.93
2018-10-07T10:42:48.436Z,53.80
2018-10-07T10:44:03.129Z,53.39
2018-10-07T10:45:07.583Z,53.09
2018-10-07T10:46:57.817Z,53.32
2018-10-07T10:48:23.368Z,52.98
2018-10-07T10:49:35.673Z,52.91
2018-10-07T10:50:46.559Z,52.69
2018-10-07T10:53:00.975Z,52.13
2018-10-07T10:54:09.561Z,52.22
2018-10-07T10:55:22.454Z,52.96
2018-10-07T10:56:29.742Z,52.87
2018-10-07T10:57:54.057Z,52.42
2018-10-07T11:00:05.512Z,52.13
2018-10-07T11:01:27.856Z,51.76
2018-10-07T11:03:42.218Z,52.11
2018-10-07T11:04:54.364Z,51.65
2018-10-07T11:06:04.086Z,52.03
2018-10-07T11:07:28.235Z,51.61
2018-10-07T11:08:51.702Z,51.58
2018-10-07T11:10:01.638Z,51.79
2018-10-07T11:11:14.157Z,51.38
2018-10-07T11:13:31.534Z,51.92
2018-10-07T11:15:13.283Z,51.21
2018-10-07T11:16:27.653Z,51.13
2018-10-07T11:17:39.183Z,50.82
2018-10-07T11:19:00.872Z,51.24
2018-10-07T11:20:19.747Z,51.26
2018-10-07T11:21:44.353Z,51.05
2018-10-07T11:24:00.295Z,50.96
2018-10-07T11:25:17.336Z,51.54
2018-10-07T11:26:37.212Z,51.33
2018-10-07T11:27:56.424Z,51.15
2018-10-07T11:29:08.095Z,51.33
2018-10-07T11:30:26.712Z,51.34
2018-10-07T11:31:37.587Z,51.17
2018-10-07T11:32:53.911Z,51.04
2018-10-07T11:34:09.458Z,50.64
2018-10-07T11:35:20.831Z,50.28
2018-10-07T11:37:42.954Z,50.07
2018-10-07T11:39:02.788Z,50.17
2018-10-07T11:40:19.729Z,50.16
2018-10-07T11:41:31.210Z,50.04
2018-10-07T11:42:43.651Z,50.43
2018-10-07T11:43:55.704Z,49.82
2018-10-07T11:45:08.293Z,49.85
2018-10-07T11:46:28.340Z,49.69
2018-10-07T11:49:50.690Z,50.25
2018-10-07T11:53:15.616Z,49.25
2018-10-07T11:54:25.750Z,49.25
2018-10-07T11:55:30.424Z,49.41
2018-10-07T11:56:35.925Z,49.38
2018-10-07T11:57:39.976Z,49.96
2018-10-07T11:58:44.028Z,49.47
2018-10-07T11:59:48.102Z,49.31
2018-10-07T12:00:52.074Z,49.22
2018-10-07T12:01:56.123Z,49.51
2018-10-07T12:03:00.416Z,49.65
2018-10-07T12:04:04.502Z,49.18
2018-10-07T12:05:08.534Z,49.43
2018-10-07T12:06:12.549Z,48.78
2018-10-07T12:07:16.911Z,48.47
2018-10-07T12:08:21.059Z,48.44
2018-10-07T12:09:25.177Z,48.21
2018-10-07T12:10:29.140Z,48.71
2018-10-07T12:11:33.219Z,48.07
2018-10-07T12:12:37.231Z,48.35
2018-10-07T12:13:41.218Z,48.12
2018-10-07T12:14:45.839Z,48.34
2018-10-07T12:15:49.867Z,48.23
2018-10-07T12:16:53.949Z,48.12
2018-10-07T12:17:58.856Z,48.69
2018-10-07T12:19:02.905Z,48.52
2018-10-07T12:20:06.898Z,48.45
2018-10-07T12:21:11.012Z,48.46
2018-10-07T12:22:15.037Z,47.72
2018-10-07T12:23:19.134Z,47.66
2018-10-07T12:24:23.169Z,48.36
2018-10-07T12:25:27.194Z,47.90
2018-10-07T12:26:31.236Z,48.39
2018-10-07T12:27:35.237Z,48.22
2018-10-07T12:28:39.416Z,48.20
2018-10-07T12:29:43.483Z,48.53
2018-10-07T12:30:47.503Z,48.52
2018-10-07T12:31:51.824Z,48.20
2018-10-07T12:32:55.792Z,48.54
2018-10-07T12:33:59.835Z,48.28
2018-10-07T12:35:03.856Z,48.46
2018-10-07T12:36:08.863Z,47.93
2018-10-07T12:37:13.564Z,48.18
2018-10-07T12:38:17.524Z,47.79
2018-10-07T12:39:21.656Z,48.50
2018-10-07T12:40:25.909Z,47.73
2018-10-07T12:41:29.924Z,47.62
2018-10-07T12:42:33.945Z,47.82
2018-10-07T12:43:38.030Z,47.23
2018-10-07T12:44:42.035Z,47.91
2018-10-07T12:45:46.119Z,47.35
2018-10-07T12:46:50.196Z,47.33
2018-10-07T12:47:54.396Z,47.62
2018-10-07T12:48:58.463Z,47.80
2018-10-07T12:50:02.499Z,47.58
2018-10-07T12:51:07.018Z,47.65
2018-10-07T12:52:11.036Z,47.20
2018-10-07T12:53:15.192Z,47.12
2018-10-07T12:54:19.417Z,47.44
2018-10-07T12:55:23.423Z,46.79
2018-10-07T12:56:27.513Z,47.41
2018-10-07T12:57:31.642Z,47.17
2018-10-07T12:58:35.742Z,47.24
2018-10-07T12:59:39.791Z,47.21
2018-10-07T13:00:43.787Z,47.36
2018-10-07T13:01:47.853Z,47.57
2018-10-07T13:02:51.936Z,47.44
2018-10-07T13:03:56.273Z,46.81
2018-10-07T13:05:00.367Z,47.03
2018-10-07T13:06:04.508Z,46.81
2018-10-07T13:07:08.648Z,47.06
2018-10-07T13:08:12.763Z,46.87
2018-10-07T13:09:16.865Z,47.45
2018-10-07T13:10:21.009Z,47.07
2018-10-07T13:11:25.127Z,47.48
2018-10-07T13:12:29.162Z,47.13
2018-10-07T13:13:33.272Z,47.30
2018-10-07T13:14:37.304Z,47.46
2018-10-07T13:15:41.369Z,47.50
2018-10-07T13:16:45.447Z,46.99
2018-10-07T13:17:49.566Z,47.48
2018-10-07T13:18:53.713Z,46.89
2018-10-07T13:19:57.806Z,47.17
2018-10-07T13:21:01.973Z,46.79
2018-10-07T13:22:06.055Z,46.82
2018-10-07T13:23:10.227Z,46.75
2018-10-07T13:24:14.212Z,47.29
2018-10-07T13:25:18.204Z,47.46
2018-10-07T13:26:22.288Z,47.32
2018-10-07T13:27:26.373Z,47.47
2018-10-07T13:28:30.432Z,46.62
2018-10-07T13:29:34.476Z,46.98
2018-10-07T13:30:38.568Z,46.57
2018-10-07T13:31:42.624Z,47.16
2018-10-07T13:32:46.650Z,47.13
2018-10-07T13:33:51.557Z,46.48
2018-10-07T13:34:55.696Z,47.08
2018-10-07T13:36:00.329Z,46.48
2018-10-07T13:37:04.968Z,47.11
2018-10-07T13:38:09.122Z,46.92
2018-10-07T13:39:13.604Z,47.28
2018-10-07T13:40:22.085Z,47.19
2018-10-07T13:41:26.081Z,47.14
2018-10-07T13:42:30.074Z,46.59
2018-10-07T13:43:34.131Z,46.39
2018-10-07T13:44:38.267Z,46.44
2018-10-07T13:45:42.350Z,46.42
2018-10-07T13:46:46.363Z,47.02
2018-10-07T13:47:50.391Z,47.02
2018-10-07T13:48:54.481Z,46.27
2018-10-07T13:49:58.644Z,46.90
2018-10-07T13:51:02.771Z,46.38
2018-10-07T13:52:06.943Z,46.23
2018-10-07T13:53:11.071Z,46.33
2018-10-07T13:54:15.083Z,46.72
2018-10-07T13:55:19.147Z,46.63
2018-10-07T13:56:23.204Z,46.10
2018-10-07T13:57:30.411Z,45.98
2018-10-07T13:58:38.821Z,45.88
2018-10-07T13:59:42.856Z,46.50
2018-10-07T14:00:46.900Z,46.44
2018-10-07T14:01:53.828Z,46.26
2018-10-07T14:02:57.847Z,46.22
2018-10-07T14:04:02.241Z,45.88
2018-10-07T14:05:06.175Z,46.09
2018-10-07T14:06:10.267Z,45.78
2018-10-07T14:07:14.430Z,45.84
2018-10-07T14:08:18.921Z,45.58
2018-10-07T14:09:22.988Z,45.50
2018-10-07T14:10:28.510Z,45.39
2018-10-07T14:11:32.627Z,46.02
2018-10-07T14:12:36.659Z,45.44
2018-10-07T14:13:40.797Z,45.88
2018-10-07T14:14:44.792Z,45.22
2018-10-07T14:15:48.919Z,45.38
2018-10-07T14:16:53.074Z,45.56
2018-10-07T14:17:57.192Z,45.39
2018-10-07T14:19:01.249Z,45.48
2018-10-07T14:20:05.468Z,45.81
2018-10-07T14:21:09.512Z,45.54